sensor_id;sensor_type;location;lat;lon;timestamp;temperature;humidity
51613;DHT22;37694;51.748;14.326;2022-07-18T00:00:24;22.10;43.40
51613;DHT22;37694;51.748;14.326;2022-07-18T00:02:49;22.00;43.30
51613;DHT22;37694;51.748;14.326;2022-07-18T00:05:15;22.00;43.40
51613;DHT22;37694;51.748;14.326;2022-07-18T00:07:40;22.00;43.10
51613;DHT22;37694;51.748;14.326;2022-07-18T00:10:06;22.00;43.00
51613;DHT22;37694;51.748;14.326;2022-07-18T00:12:32;22.00;43.10
51613;DHT22;37694;51.748;14.326;2022-07-18T00:14:57;21.90;43.00
51613;DHT22;37694;51.748;14.326;2022-07-18T00:17:23;21.90;43.20
51613;DHT22;37694;51.748;14.326;2022-07-18T00:19:49;21.90;43.00
51613;DHT22;37694;51.748;14.326;2022-07-18T00:22:14;21.80;42.80
51613;DHT22;37694;51.748;14.326;2022-07-18T00:24:40;21.90;43.00
51613;DHT22;37694;51.748;14.326;2022-07-18T00:27:06;21.90;42.80
51613;DHT22;37694;51.748;14.326;2022-07-18T00:29:33;21.90;42.70
51613;DHT22;37694;51.748;14.326;2022-07-18T00:32:03;21.80;42.80
51613;DHT22;37694;51.748;14.326;2022-07-18T00:34:29;21.80;42.60
51613;DHT22;37694;51.748;14.326;2022-07-18T00:36:55;21.90;42.80
51613;DHT22;37694;51.748;14.326;2022-07-18T00:39:20;21.80;42.70
51613;DHT22;37694;51.748;14.326;2022-07-18T00:41:47;21.90;42.70
51613;DHT22;37694;51.748;14.326;2022-07-18T00:44:21;21.80;42.60
51613;DHT22;37694;51.748;14.326;2022-07-18T00:46:52;21.80;42.30
51613;DHT22;37694;51.748;14.326;2022-07-18T00:49:19;21.80;42.60
51613;DHT22;37694;51.748;14.326;2022-07-18T00:51:45;21.80;42.60
51613;DHT22;37694;51.748;14.326;2022-07-18T00:54:11;21.80;42.50
51613;DHT22;37694;51.748;14.326;2022-07-18T00:56:37;21.80;42.30
51613;DHT22;37694;51.748;14.326;2022-07-18T00:59:03;21.70;42.40
51613;DHT22;37694;51.748;14.326;2022-07-18T01:01:29;21.70;42.30
51613;DHT22;37694;51.748;14.326;2022-07-18T01:04:22;21.70;42.40
51613;DHT22;37694;51.748;14.326;2022-07-18T01:06:49;21.70;43.00
51613;DHT22;37694;51.748;14.326;2022-07-18T01:09:16;21.60;43.70
51613;DHT22;37694;51.748;14.326;2022-07-18T01:11:44;21.60;44.20
51613;DHT22;37694;51.748;14.326;2022-07-18T01:14:10;21.60;44.80
51613;DHT22;37694;51.748;14.326;2022-07-18T01:16:36;21.50;45.30
51613;DHT22;37694;51.748;14.326;2022-07-18T01:19:03;21.50;45.80
51613;DHT22;37694;51.748;14.326;2022-07-18T01:21:29;21.50;46.10
51613;DHT22;37694;51.748;14.326;2022-07-18T01:23:55;21.50;46.30
51613;DHT22;37694;51.748;14.326;2022-07-18T01:26:20;21.50;46.50
51613;DHT22;37694;51.748;14.326;2022-07-18T01:28:46;21.50;46.90
51613;DHT22;37694;51.748;14.326;2022-07-18T01:31:12;21.50;46.70
51613;DHT22;37694;51.748;14.326;2022-07-18T01:33:38;21.60;46.50
51613;DHT22;37694;51.748;14.326;2022-07-18T01:36:05;21.80;46.40
51613;DHT22;37694;51.748;14.326;2022-07-18T01:38:32;21.90;46.10
51613;DHT22;37694;51.748;14.326;2022-07-18T01:40:59;22.10;46.00
51613;DHT22;37694;51.748;14.326;2022-07-18T01:43:26;22.10;45.90
51613;DHT22;37694;51.748;14.326;2022-07-18T01:45:52;22.20;45.80
51613;DHT22;37694;51.748;14.326;2022-07-18T01:48:18;22.30;45.80
51613;DHT22;37694;51.748;14.326;2022-07-18T01:50:45;22.30;45.70
51613;DHT22;37694;51.748;14.326;2022-07-18T01:53:11;22.40;45.70
51613;DHT22;37694;51.748;14.326;2022-07-18T01:55:36;22.40;45.60
51613;DHT22;37694;51.748;14.326;2022-07-18T01:58:02;22.50;45.70
51613;DHT22;37694;51.748;14.326;2022-07-18T02:00:28;22.50;45.60
51613;DHT22;37694;51.748;14.326;2022-07-18T02:02:53;22.50;45.60
51613;DHT22;37694;51.748;14.326;2022-07-18T02:05:19;22.60;45.60
51613;DHT22;37694;51.748;14.326;2022-07-18T02:07:44;22.60;45.60
51613;DHT22;37694;51.748;14.326;2022-07-18T02:10:14;22.60;45.50
51613;DHT22;37694;51.748;14.326;2022-07-18T02:12:40;22.60;45.50
51613;DHT22;37694;51.748;14.326;2022-07-18T02:15:07;22.70;45.60
51613;DHT22;37694;51.748;14.326;2022-07-18T02:17:33;22.70;45.50
51613;DHT22;37694;51.748;14.326;2022-07-18T02:19:59;22.70;45.60
51613;DHT22;37694;51.748;14.326;2022-07-18T02:22:24;22.70;46.40
51613;DHT22;37694;51.748;14.326;2022-07-18T02:24:51;22.80;45.60
51613;DHT22;37694;51.748;14.326;2022-07-18T02:27:17;22.80;45.70
51613;DHT22;37694;51.748;14.326;2022-07-18T02:29:42;22.80;45.70
51613;DHT22;37694;51.748;14.326;2022-07-18T02:32:08;22.80;45.60
51613;DHT22;37694;51.748;14.326;2022-07-18T02:34:34;22.90;45.80
51613;DHT22;37694;51.748;14.326;2022-07-18T02:37:00;22.90;45.90
51613;DHT22;37694;51.748;14.326;2022-07-18T02:39:25;22.90;45.90
51613;DHT22;37694;51.748;14.326;2022-07-18T02:41:51;22.90;45.90
51613;DHT22;37694;51.748;14.326;2022-07-18T02:44:16;22.90;45.90
51613;DHT22;37694;51.748;14.326;2022-07-18T02:46:42;22.90;46.80
51613;DHT22;37694;51.748;14.326;2022-07-18T02:49:08;22.90;45.90
51613;DHT22;37694;51.748;14.326;2022-07-18T02:51:34;23.00;45.90
51613;DHT22;37694;51.748;14.326;2022-07-18T02:53:59;23.00;46.00
51613;DHT22;37694;51.748;14.326;2022-07-18T02:56:25;23.00;45.90
51613;DHT22;37694;51.748;14.326;2022-07-18T02:58:51;23.00;46.00
51613;DHT22;37694;51.748;14.326;2022-07-18T03:01:16;23.00;46.00
51613;DHT22;37694;51.748;14.326;2022-07-18T03:03:42;23.00;46.50
51613;DHT22;37694;51.748;14.326;2022-07-18T03:06:08;23.00;45.90
51613;DHT22;37694;51.748;14.326;2022-07-18T03:08:34;23.00;46.00
51613;DHT22;37694;51.748;14.326;2022-07-18T03:10:59;23.10;46.00
51613;DHT22;37694;51.748;14.326;2022-07-18T03:13:25;23.10;45.90
51613;DHT22;37694;51.748;14.326;2022-07-18T03:15:50;23.10;46.00
51613;DHT22;37694;51.748;14.326;2022-07-18T03:18:16;23.10;46.00
51613;DHT22;37694;51.748;14.326;2022-07-18T03:20:43;23.10;46.20
51613;DHT22;37694;51.748;14.326;2022-07-18T03:23:08;23.10;46.20
51613;DHT22;37694;51.748;14.326;2022-07-18T03:25:34;23.10;46.10
51613;DHT22;37694;51.748;14.326;2022-07-18T03:28:00;23.10;46.10
51613;DHT22;37694;51.748;14.326;2022-07-18T03:30:26;23.20;46.20
51613;DHT22;37694;51.748;14.326;2022-07-18T03:32:51;23.20;46.20
51613;DHT22;37694;51.748;14.326;2022-07-18T03:35:17;23.20;46.20
51613;DHT22;37694;51.748;14.326;2022-07-18T03:37:43;23.20;46.10
51613;DHT22;37694;51.748;14.326;2022-07-18T03:40:09;23.20;46.20
51613;DHT22;37694;51.748;14.326;2022-07-18T03:42:39;23.20;46.20
51613;DHT22;37694;51.748;14.326;2022-07-18T03:45:06;23.20;46.20
51613;DHT22;37694;51.748;14.326;2022-07-18T03:47:32;23.20;46.10
51613;DHT22;37694;51.748;14.326;2022-07-18T03:49:58;23.20;46.10
51613;DHT22;37694;51.748;14.326;2022-07-18T03:52:24;23.20;46.90
51613;DHT22;37694;51.748;14.326;2022-07-18T03:54:49;23.30;46.20
51613;DHT22;37694;51.748;14.326;2022-07-18T03:57:15;23.30;46.30
51613;DHT22;37694;51.748;14.326;2022-07-18T03:59:40;23.20;46.30
51613;DHT22;37694;51.748;14.326;2022-07-18T04:02:06;23.30;46.10
51613;DHT22;37694;51.748;14.326;2022-07-18T04:04:32;23.30;46.10
51613;DHT22;37694;51.748;14.326;2022-07-18T04:06:57;23.30;46.10
51613;DHT22;37694;51.748;14.326;2022-07-18T04:09:25;23.30;46.30
51613;DHT22;37694;51.748;14.326;2022-07-18T04:11:51;23.30;46.50
51613;DHT22;37694;51.748;14.326;2022-07-18T04:14:17;23.30;46.30
51613;DHT22;37694;51.748;14.326;2022-07-18T04:16:42;23.30;46.30
51613;DHT22;37694;51.748;14.326;2022-07-18T04:19:09;23.30;46.40
51613;DHT22;37694;51.748;14.326;2022-07-18T04:21:35;23.30;46.30
51613;DHT22;37694;51.748;14.326;2022-07-18T04:24:00;23.30;46.50
51613;DHT22;37694;51.748;14.326;2022-07-18T04:26:26;23.30;46.50
51613;DHT22;37694;51.748;14.326;2022-07-18T04:28:52;23.30;46.50
51613;DHT22;37694;51.748;14.326;2022-07-18T04:31:18;23.30;46.50
51613;DHT22;37694;51.748;14.326;2022-07-18T04:33:44;23.40;46.50
51613;DHT22;37694;51.748;14.326;2022-07-18T04:36:10;23.40;46.60
51613;DHT22;37694;51.748;14.326;2022-07-18T04:38:35;23.40;46.50
51613;DHT22;37694;51.748;14.326;2022-07-18T04:41:03;23.40;46.50
51613;DHT22;37694;51.748;14.326;2022-07-18T04:43:30;23.40;46.50
51613;DHT22;37694;51.748;14.326;2022-07-18T04:45:55;23.40;46.50
51613;DHT22;37694;51.748;14.326;2022-07-18T04:48:21;23.50;46.60
51613;DHT22;37694;51.748;14.326;2022-07-18T04:50:46;23.50;46.60
51613;DHT22;37694;51.748;14.326;2022-07-18T04:53:12;23.50;46.50
51613;DHT22;37694;51.748;14.326;2022-07-18T04:55:38;23.50;46.60
51613;DHT22;37694;51.748;14.326;2022-07-18T04:58:03;23.50;46.60
51613;DHT22;37694;51.748;14.326;2022-07-18T05:00:29;23.50;46.70
51613;DHT22;37694;51.748;14.326;2022-07-18T05:02:56;23.50;46.70
51613;DHT22;37694;51.748;14.326;2022-07-18T05:05:23;23.50;46.60
51613;DHT22;37694;51.748;14.326;2022-07-18T05:07:49;23.50;46.80
51613;DHT22;37694;51.748;14.326;2022-07-18T05:10:16;23.50;46.60
51613;DHT22;37694;51.748;14.326;2022-07-18T05:12:43;23.50;46.60
51613;DHT22;37694;51.748;14.326;2022-07-18T05:15:12;23.50;46.40
51613;DHT22;37694;51.748;14.326;2022-07-18T05:17:38;23.60;46.60
51613;DHT22;37694;51.748;14.326;2022-07-18T05:20:06;23.60;46.50
51613;DHT22;37694;51.748;14.326;2022-07-18T05:22:33;23.60;46.60
51613;DHT22;37694;51.748;14.326;2022-07-18T05:25:00;23.60;46.70
51613;DHT22;37694;51.748;14.326;2022-07-18T05:27:26;23.60;46.60
51613;DHT22;37694;51.748;14.326;2022-07-18T05:29:51;23.60;46.80
51613;DHT22;37694;51.748;14.326;2022-07-18T05:32:17;23.70;46.80
51613;DHT22;37694;51.748;14.326;2022-07-18T05:34:42;23.70;46.90
51613;DHT22;37694;51.748;14.326;2022-07-18T05:37:08;23.70;47.00
51613;DHT22;37694;51.748;14.326;2022-07-18T05:39:34;23.70;47.00
51613;DHT22;37694;51.748;14.326;2022-07-18T05:42:01;23.70;47.00
51613;DHT22;37694;51.748;14.326;2022-07-18T05:44:27;23.70;47.10
51613;DHT22;37694;51.748;14.326;2022-07-18T05:46:52;23.70;47.00
51613;DHT22;37694;51.748;14.326;2022-07-18T05:49:18;23.70;47.10
51613;DHT22;37694;51.748;14.326;2022-07-18T05:51:44;23.70;47.30
51613;DHT22;37694;51.748;14.326;2022-07-18T05:54:10;23.80;47.40
51613;DHT22;37694;51.748;14.326;2022-07-18T05:56:35;23.80;47.40
51613;DHT22;37694;51.748;14.326;2022-07-18T05:59:01;23.80;47.50
51613;DHT22;37694;51.748;14.326;2022-07-18T06:01:27;23.80;47.40
51613;DHT22;37694;51.748;14.326;2022-07-18T06:03:52;23.90;47.50
51613;DHT22;37694;51.748;14.326;2022-07-18T06:06:18;23.90;47.40
51613;DHT22;37694;51.748;14.326;2022-07-18T06:08:46;23.90;47.40
51613;DHT22;37694;51.748;14.326;2022-07-18T06:11:12;23.90;47.70
51613;DHT22;37694;51.748;14.326;2022-07-18T06:13:39;23.90;47.70
51613;DHT22;37694;51.748;14.326;2022-07-18T06:16:06;24.00;47.60
51613;DHT22;37694;51.748;14.326;2022-07-18T06:18:33;24.00;47.60
51613;DHT22;37694;51.748;14.326;2022-07-18T06:21:01;24.00;47.10
51613;DHT22;37694;51.748;14.326;2022-07-18T06:23:26;23.90;46.70
51613;DHT22;37694;51.748;14.326;2022-07-18T06:25:52;24.00;46.70
51613;DHT22;37694;51.748;14.326;2022-07-18T06:28:18;24.00;46.60
51613;DHT22;37694;51.748;14.326;2022-07-18T06:30:43;24.00;46.50
51613;DHT22;37694;51.748;14.326;2022-07-18T06:33:09;24.00;46.50
51613;DHT22;37694;51.748;14.326;2022-07-18T06:35:36;24.10;46.60
51613;DHT22;37694;51.748;14.326;2022-07-18T06:38:01;24.00;46.40
51613;DHT22;37694;51.748;14.326;2022-07-18T06:40:27;24.10;46.30
51613;DHT22;37694;51.748;14.326;2022-07-18T06:42:52;24.10;46.30
51613;DHT22;37694;51.748;14.326;2022-07-18T06:45:18;24.10;46.30
51613;DHT22;37694;51.748;14.326;2022-07-18T06:47:44;24.10;47.20
51613;DHT22;37694;51.748;14.326;2022-07-18T06:50:11;24.10;46.20
51613;DHT22;37694;51.748;14.326;2022-07-18T06:52:38;24.10;46.20
51613;DHT22;37694;51.748;14.326;2022-07-18T06:55:05;24.10;46.20
51613;DHT22;37694;51.748;14.326;2022-07-18T06:57:31;24.10;46.10
51613;DHT22;37694;51.748;14.326;2022-07-18T06:59:57;24.10;46.00
51613;DHT22;37694;51.748;14.326;2022-07-18T07:02:22;24.20;46.10
51613;DHT22;37694;51.748;14.326;2022-07-18T07:04:48;24.10;46.00
51613;DHT22;37694;51.748;14.326;2022-07-18T07:07:14;24.20;46.00
51613;DHT22;37694;51.748;14.326;2022-07-18T07:09:39;24.20;45.90
51613;DHT22;37694;51.748;14.326;2022-07-18T07:12:05;24.20;45.90
51613;DHT22;37694;51.748;14.326;2022-07-18T07:14:31;24.20;45.90
51613;DHT22;37694;51.748;14.326;2022-07-18T07:16:56;24.20;45.90
51613;DHT22;37694;51.748;14.326;2022-07-18T07:19:22;24.30;45.90
51613;DHT22;37694;51.748;14.326;2022-07-18T07:21:47;24.30;45.80
51613;DHT22;37694;51.748;14.326;2022-07-18T07:24:13;24.30;45.80
51613;DHT22;37694;51.748;14.326;2022-07-18T07:26:39;24.30;45.80
51613;DHT22;37694;51.748;14.326;2022-07-18T07:29:05;24.30;45.70
51613;DHT22;37694;51.748;14.326;2022-07-18T07:31:30;24.30;45.60
51613;DHT22;37694;51.748;14.326;2022-07-18T07:33:56;24.30;45.60
51613;DHT22;37694;51.748;14.326;2022-07-18T07:36:22;24.30;45.60
51613;DHT22;37694;51.748;14.326;2022-07-18T07:38:48;24.40;45.60
51613;DHT22;37694;51.748;14.326;2022-07-18T07:41:13;24.40;45.60
51613;DHT22;37694;51.748;14.326;2022-07-18T07:43:39;24.40;45.60
51613;DHT22;37694;51.748;14.326;2022-07-18T07:46:06;24.40;45.60
51613;DHT22;37694;51.748;14.326;2022-07-18T07:48:31;24.40;45.50
51613;DHT22;37694;51.748;14.326;2022-07-18T07:50:57;24.40;45.50
51613;DHT22;37694;51.748;14.326;2022-07-18T07:53:23;24.50;45.50
51613;DHT22;37694;51.748;14.326;2022-07-18T07:55:49;24.50;45.40
51613;DHT22;37694;51.748;14.326;2022-07-18T07:58:14;24.50;45.30
51613;DHT22;37694;51.748;14.326;2022-07-18T08:00:40;24.50;45.30
51613;DHT22;37694;51.748;14.326;2022-07-18T08:03:07;24.50;45.30
51613;DHT22;37694;51.748;14.326;2022-07-18T08:05:36;24.50;45.30
51613;DHT22;37694;51.748;14.326;2022-07-18T08:08:03;24.50;45.20
51613;DHT22;37694;51.748;14.326;2022-07-18T08:10:30;24.60;45.30
51613;DHT22;37694;51.748;14.326;2022-07-18T08:12:56;24.60;45.30
51613;DHT22;37694;51.748;14.326;2022-07-18T08:15:22;24.60;45.20
51613;DHT22;37694;51.748;14.326;2022-07-18T08:17:49;24.60;45.10
51613;DHT22;37694;51.748;14.326;2022-07-18T08:20:15;24.60;45.20
51613;DHT22;37694;51.748;14.326;2022-07-18T08:23:03;24.60;45.10
51613;DHT22;37694;51.748;14.326;2022-07-18T08:25:32;24.70;45.00
51613;DHT22;37694;51.748;14.326;2022-07-18T08:27:58;24.70;45.00
51613;DHT22;37694;51.748;14.326;2022-07-18T08:30:25;24.70;45.00
51613;DHT22;37694;51.748;14.326;2022-07-18T08:32:50;24.70;45.00
51613;DHT22;37694;51.748;14.326;2022-07-18T08:35:16;24.70;45.00
51613;DHT22;37694;51.748;14.326;2022-07-18T08:37:42;24.80;45.00
51613;DHT22;37694;51.748;14.326;2022-07-18T08:40:09;24.80;45.00
51613;DHT22;37694;51.748;14.326;2022-07-18T08:42:35;24.80;45.00
51613;DHT22;37694;51.748;14.326;2022-07-18T08:45:03;24.80;44.90
51613;DHT22;37694;51.748;14.326;2022-07-18T08:47:29;24.80;44.90
51613;DHT22;37694;51.748;14.326;2022-07-18T08:49:55;24.80;44.80
51613;DHT22;37694;51.748;14.326;2022-07-18T08:52:22;24.90;44.80
51613;DHT22;37694;51.748;14.326;2022-07-18T08:54:48;24.90;44.70
51613;DHT22;37694;51.748;14.326;2022-07-18T08:57:17;24.90;44.70
51613;DHT22;37694;51.748;14.326;2022-07-18T08:59:43;24.90;44.60
51613;DHT22;37694;51.748;14.326;2022-07-18T09:02:08;24.90;44.60
51613;DHT22;37694;51.748;14.326;2022-07-18T09:04:41;24.90;44.60
51613;DHT22;37694;51.748;14.326;2022-07-18T09:07:08;25.00;44.50
51613;DHT22;37694;51.748;14.326;2022-07-18T09:09:37;24.90;44.60
51613;DHT22;37694;51.748;14.326;2022-07-18T09:12:08;24.90;44.60
51613;DHT22;37694;51.748;14.326;2022-07-18T09:14:42;25.00;44.60
51613;DHT22;37694;51.748;14.326;2022-07-18T09:17:20;25.00;44.50
51613;DHT22;37694;51.748;14.326;2022-07-18T09:22:32;25.10;44.40
51613;DHT22;37694;51.748;14.326;2022-07-18T09:25:03;25.10;44.40
51613;DHT22;37694;51.748;14.326;2022-07-18T09:27:32;25.10;44.40
51613;DHT22;37694;51.748;14.326;2022-07-18T09:30:19;25.10;44.40
51613;DHT22;37694;51.748;14.326;2022-07-18T09:35:35;25.20;44.30
51613;DHT22;37694;51.748;14.326;2022-07-18T09:38:06;25.20;44.50
51613;DHT22;37694;51.748;14.326;2022-07-18T09:40:44;25.20;44.50
51613;DHT22;37694;51.748;14.326;2022-07-18T09:43:13;25.20;44.40
51613;DHT22;37694;51.748;14.326;2022-07-18T09:45:50;25.30;44.50
51613;DHT22;37694;51.748;14.326;2022-07-18T09:48:18;25.30;44.30
51613;DHT22;37694;51.748;14.326;2022-07-18T09:50:58;25.30;44.40
51613;DHT22;37694;51.748;14.326;2022-07-18T09:53:36;25.30;44.30
51613;DHT22;37694;51.748;14.326;2022-07-18T09:56:11;25.40;44.30
51613;DHT22;37694;51.748;14.326;2022-07-18T09:58:39;25.40;44.20
51613;DHT22;37694;51.748;14.326;2022-07-18T10:01:07;25.40;44.10
51613;DHT22;37694;51.748;14.326;2022-07-18T10:03:33;25.40;44.10
51613;DHT22;37694;51.748;14.326;2022-07-18T10:06:00;25.40;44.10
51613;DHT22;37694;51.748;14.326;2022-07-18T10:08:29;25.40;44.30
51613;DHT22;37694;51.748;14.326;2022-07-18T10:10:57;25.50;44.30
51613;DHT22;37694;51.748;14.326;2022-07-18T10:13:25;25.50;44.20
51613;DHT22;37694;51.748;14.326;2022-07-18T10:15:51;25.50;44.20
51613;DHT22;37694;51.748;14.326;2022-07-18T10:18:19;25.50;44.20
51613;DHT22;37694;51.748;14.326;2022-07-18T10:20:47;25.60;44.10
51613;DHT22;37694;51.748;14.326;2022-07-18T10:25:42;25.60;44.10
51613;DHT22;37694;51.748;14.326;2022-07-18T10:28:14;25.60;44.20
51613;DHT22;37694;51.748;14.326;2022-07-18T10:30:47;25.60;44.10
51613;DHT22;37694;51.748;14.326;2022-07-18T10:36:20;25.70;43.90
51613;DHT22;37694;51.748;14.326;2022-07-18T10:39:14;25.70;43.90
51613;DHT22;37694;51.748;14.326;2022-07-18T11:03:04;25.90;44.00
51613;DHT22;37694;51.748;14.326;2022-07-18T11:16:20;26.00;43.70
51613;DHT22;37694;51.748;14.326;2022-07-18T11:23:44;26.10;43.70
51613;DHT22;37694;51.748;14.326;2022-07-18T11:26:18;26.10;43.70
51613;DHT22;37694;51.748;14.326;2022-07-18T11:28:46;26.10;43.50
51613;DHT22;37694;51.748;14.326;2022-07-18T11:31:12;26.10;43.50
51613;DHT22;37694;51.748;14.326;2022-07-18T11:33:40;26.20;43.60
51613;DHT22;37694;51.748;14.326;2022-07-18T11:36:12;26.20;43.50
51613;DHT22;37694;51.748;14.326;2022-07-18T11:39:01;26.20;43.50
51613;DHT22;37694;51.748;14.326;2022-07-18T11:41:25;26.30;43.50
51613;DHT22;37694;51.748;14.326;2022-07-18T11:43:52;26.10;43.00
51613;DHT22;37694;51.748;14.326;2022-07-18T11:46:20;25.90;42.30
51613;DHT22;37694;51.748;14.326;2022-07-18T11:49:02;25.50;42.10
51613;DHT22;37694;51.748;14.326;2022-07-18T11:51:36;25.30;42.30
51613;DHT22;37694;51.748;14.326;2022-07-18T11:54:03;25.00;41.70
51613;DHT22;37694;51.748;14.326;2022-07-18T11:56:30;24.90;42.00
51613;DHT22;37694;51.748;14.326;2022-07-18T11:58:56;24.80;41.80
51613;DHT22;37694;51.748;14.326;2022-07-18T12:01:30;24.70;41.90
51613;DHT22;37694;51.748;14.326;2022-07-18T12:03:56;24.60;41.50
51613;DHT22;37694;51.748;14.326;2022-07-18T12:06:23;24.50;42.10
51613;DHT22;37694;51.748;14.326;2022-07-18T12:08:54;24.40;42.00
51613;DHT22;37694;51.748;14.326;2022-07-18T12:11:38;24.50;42.10
51613;DHT22;37694;51.748;14.326;2022-07-18T12:19:19;24.20;42.20
51613;DHT22;37694;51.748;14.326;2022-07-18T12:21:50;24.20;42.20
51613;DHT22;37694;51.748;14.326;2022-07-18T12:32:58;23.90;41.90
51613;DHT22;37694;51.748;14.326;2022-07-18T12:35:33;23.80;41.80
51613;DHT22;37694;51.748;14.326;2022-07-18T12:40:57;23.80;41.70
51613;DHT22;37694;51.748;14.326;2022-07-18T12:43:31;23.80;41.70
51613;DHT22;37694;51.748;14.326;2022-07-18T12:45:58;23.70;42.10
51613;DHT22;37694;51.748;14.326;2022-07-18T12:48:26;23.60;42.10
51613;DHT22;37694;51.748;14.326;2022-07-18T12:51:00;23.60;42.10
51613;DHT22;37694;51.748;14.326;2022-07-18T12:53:27;23.50;42.00
51613;DHT22;37694;51.748;14.326;2022-07-18T12:55:53;23.50;42.10
51613;DHT22;37694;51.748;14.326;2022-07-18T12:58:20;23.50;42.00
51613;DHT22;37694;51.748;14.326;2022-07-18T13:00:46;23.50;41.90
51613;DHT22;37694;51.748;14.326;2022-07-18T13:03:12;23.40;41.90
51613;DHT22;37694;51.748;14.326;2022-07-18T13:05:38;23.40;41.90
51613;DHT22;37694;51.748;14.326;2022-07-18T13:08:04;23.30;42.10
51613;DHT22;37694;51.748;14.326;2022-07-18T13:10:32;23.30;42.10
51613;DHT22;37694;51.748;14.326;2022-07-18T13:12:58;23.20;42.50
51613;DHT22;37694;51.748;14.326;2022-07-18T13:15:26;23.10;42.80
51613;DHT22;37694;51.748;14.326;2022-07-18T13:17:51;23.00;43.20
51613;DHT22;37694;51.748;14.326;2022-07-18T13:20:17;22.90;43.40
51613;DHT22;37694;51.748;14.326;2022-07-18T13:22:43;22.80;43.60
51613;DHT22;37694;51.748;14.326;2022-07-18T13:25:09;22.70;44.70
51613;DHT22;37694;51.748;14.326;2022-07-18T13:27:36;22.60;44.10
51613;DHT22;37694;51.748;14.326;2022-07-18T13:30:04;22.60;44.20
51613;DHT22;37694;51.748;14.326;2022-07-18T13:32:30;22.60;44.30
51613;DHT22;37694;51.748;14.326;2022-07-18T13:34:56;22.50;44.40
51613;DHT22;37694;51.748;14.326;2022-07-18T13:37:22;22.50;44.50
51613;DHT22;37694;51.748;14.326;2022-07-18T13:39:47;22.50;45.50
51613;DHT22;37694;51.748;14.326;2022-07-18T13:42:13;22.50;44.60
51613;DHT22;37694;51.748;14.326;2022-07-18T13:44:39;22.40;44.70
51613;DHT22;37694;51.748;14.326;2022-07-18T13:47:04;22.40;45.10
51613;DHT22;37694;51.748;14.326;2022-07-18T13:49:30;22.40;44.90
51613;DHT22;37694;51.748;14.326;2022-07-18T13:51:56;22.40;44.90
51613;DHT22;37694;51.748;14.326;2022-07-18T13:54:22;22.30;45.00
51613;DHT22;37694;51.748;14.326;2022-07-18T13:56:48;22.30;45.20
51613;DHT22;37694;51.748;14.326;2022-07-18T13:59:14;22.20;45.10
51613;DHT22;37694;51.748;14.326;2022-07-18T14:01:40;22.20;45.10
51613;DHT22;37694;51.748;14.326;2022-07-18T14:04:06;22.20;45.20
51613;DHT22;37694;51.748;14.326;2022-07-18T14:06:31;22.20;45.30
51613;DHT22;37694;51.748;14.326;2022-07-18T14:08:57;22.10;45.30
51613;DHT22;37694;51.748;14.326;2022-07-18T14:11:23;22.10;45.40
51613;DHT22;37694;51.748;14.326;2022-07-18T14:13:48;22.10;45.50
51613;DHT22;37694;51.748;14.326;2022-07-18T14:16:14;22.10;45.50
51613;DHT22;37694;51.748;14.326;2022-07-18T14:18:40;22.00;45.50
51613;DHT22;37694;51.748;14.326;2022-07-18T14:21:06;22.10;49.00
51613;DHT22;37694;51.748;14.326;2022-07-18T14:23:31;22.30;49.90
51613;DHT22;37694;51.748;14.326;2022-07-18T14:25:57;22.50;50.10
51613;DHT22;37694;51.748;14.326;2022-07-18T14:28:22;22.60;50.50
51613;DHT22;37694;51.748;14.326;2022-07-18T14:30:48;22.80;51.00
51613;DHT22;37694;51.748;14.326;2022-07-18T14:33:14;22.90;51.50
51613;DHT22;37694;51.748;14.326;2022-07-18T14:35:39;23.00;51.80
51613;DHT22;37694;51.748;14.326;2022-07-18T14:38:05;23.10;51.80
51613;DHT22;37694;51.748;14.326;2022-07-18T14:40:31;23.20;52.10
51613;DHT22;37694;51.748;14.326;2022-07-18T14:42:56;23.30;52.70
51613;DHT22;37694;51.748;14.326;2022-07-18T14:45:22;23.40;53.40
51613;DHT22;37694;51.748;14.326;2022-07-18T14:47:47;23.50;53.10
51613;DHT22;37694;51.748;14.326;2022-07-18T14:50:13;23.60;52.90
51613;DHT22;37694;51.748;14.326;2022-07-18T14:52:39;23.70;52.60
51613;DHT22;37694;51.748;14.326;2022-07-18T14:55:06;23.70;52.40
51613;DHT22;37694;51.748;14.326;2022-07-18T14:57:32;23.60;52.20
51613;DHT22;37694;51.748;14.326;2022-07-18T14:59:58;23.60;51.80
51613;DHT22;37694;51.748;14.326;2022-07-18T15:02:23;23.50;50.70
51613;DHT22;37694;51.748;14.326;2022-07-18T15:04:49;23.30;51.40
51613;DHT22;37694;51.748;14.326;2022-07-18T15:07:15;23.30;52.20
51613;DHT22;37694;51.748;14.326;2022-07-18T15:09:40;23.30;52.30
51613;DHT22;37694;51.748;14.326;2022-07-18T15:12:06;23.30;52.10
51613;DHT22;37694;51.748;14.326;2022-07-18T15:14:33;23.20;51.90
51613;DHT22;37694;51.748;14.326;2022-07-18T15:16:59;23.20;52.20
51613;DHT22;37694;51.748;14.326;2022-07-18T15:19:24;23.30;52.20
51613;DHT22;37694;51.748;14.326;2022-07-18T15:21:50;23.20;52.00
51613;DHT22;37694;51.748;14.326;2022-07-18T15:24:16;23.20;52.00
51613;DHT22;37694;51.748;14.326;2022-07-18T15:26:41;23.30;51.90
51613;DHT22;37694;51.748;14.326;2022-07-18T15:29:07;23.30;52.00
51613;DHT22;37694;51.748;14.326;2022-07-18T15:31:33;23.30;51.90
51613;DHT22;37694;51.748;14.326;2022-07-18T15:33:59;23.20;51.80
51613;DHT22;37694;51.748;14.326;2022-07-18T15:36:24;23.20;51.70
51613;DHT22;37694;51.748;14.326;2022-07-18T15:38:50;23.20;51.70
51613;DHT22;37694;51.748;14.326;2022-07-18T15:41:16;23.30;51.70
51613;DHT22;37694;51.748;14.326;2022-07-18T15:43:46;23.30;51.70
51613;DHT22;37694;51.748;14.326;2022-07-18T15:46:12;23.30;51.60
51613;DHT22;37694;51.748;14.326;2022-07-18T15:48:42;23.30;51.40
51613;DHT22;37694;51.748;14.326;2022-07-18T15:51:08;23.30;51.50
51613;DHT22;37694;51.748;14.326;2022-07-18T15:53:34;23.30;51.50
51613;DHT22;37694;51.748;14.326;2022-07-18T15:55:59;23.40;51.50
51613;DHT22;37694;51.748;14.326;2022-07-18T15:58:25;23.40;51.70
51613;DHT22;37694;51.748;14.326;2022-07-18T16:00:51;23.40;51.80
51613;DHT22;37694;51.748;14.326;2022-07-18T16:03:17;23.40;51.80
51613;DHT22;37694;51.748;14.326;2022-07-18T16:05:42;23.50;53.20
51613;DHT22;37694;51.748;14.326;2022-07-18T16:08:08;23.50;53.70
51613;DHT22;37694;51.748;14.326;2022-07-18T16:10:34;23.50;55.20
51613;DHT22;37694;51.748;14.326;2022-07-18T16:12:59;23.50;55.90
51613;DHT22;37694;51.748;14.326;2022-07-18T16:15:25;23.50;56.50
51613;DHT22;37694;51.748;14.326;2022-07-18T16:17:50;23.50;57.30